Welcome to SceneSat - the place that connects the many musical aspects of the demoscene to the rest of the world.

Current time: 2020-11-25 06:17
8 listeners from 5 countries.
Dj Note & Twina - 100% [06:44]
|
Josh Whelchel - Medea's Final Conflict [03:50] at 06:18:25

SHOW PLAYLIST

Scenesat Staff - Evoke/Assembly Evening shared broadcast madness
2015-08-01 18:15:52 - 2015-08-01 21:04:06
When What
2015-08-01 18:15:52 (00:00) Scenesat Staff - Evoke/Assembly Evening shared broadcast madness
2015-08-01 18:17:55 (02:03) Phobium & Xerxes - Cold Blur
2015-08-01 18:29:52 (14:00) Xerxes - For Marie [Remix by Kepler]
2015-08-01 18:41:18 (25:26) 4k compo - clrf shdr
2015-08-01 18:42:33 (26:41) 4k compo - Hello World
2015-08-01 18:43:37 (27:45) 4k compo - Cube Demolition
2015-08-01 18:45:44 (29:52) 4k compo - Strata
2015-08-01 18:47:55 (32:03) 4k compo - Dreaming Surrealist
2015-08-01 18:50:12 (34:20) 4k compo - Beyond the Border
2015-08-01 18:52:57 (37:05) 4k compo - Hydrokinetics Prismbeings ?
2015-08-01 18:55:31 (39:39) 4k compo - unzoom
2015-08-01 18:57:48 (41:56) 4k compo - recede
2015-08-01 19:00:31 (44:39) 4k compo - Ghosts of Mars
2015-08-01 19:04:02 (48:10) 4k compo - Void Radiant
2015-08-01 19:13:31 (57:39) Gargaj - Commence/Collapse
2015-08-01 19:28:04 (72:12) Patrick Phelan - Metal Machine (Saga Musix remix)
2015-08-01 19:32:23 (76:31) SceneSat Staff - FRaNKy and Okkie Yack
2015-08-01 19:47:09 (91:17) glxblt - Containment Breach
2015-08-01 19:50:58 (95:06) SceneSat Staff - FRaNKy and Okkie Yack
2015-08-01 19:59:24 (103:32) Chris H├╝lsbeck - Compilation III (Dr.Future remix)
2015-08-01 20:04:07 (108:15) Evoke - Freestyle Graphics Compo
2015-08-01 20:17:02 (121:10) Evoke - Pixel Graphics
2015-08-01 20:23:49 (127:57) PsychNerD & Marco G - More Cowbell
2015-08-01 20:35:47 (139:55) Gasman - Spacecake
2015-08-01 20:36:18 (140:26) Nerdarzt & 5711 & Poo-Brain - Dinosaurier und Menschen
2015-08-01 20:38:00 (142:08) Anya - Under The Sky
2015-08-01 20:38:38 (142:46) K-OZ - Freed Energy
2015-08-01 20:39:29 (143:37) Nippespanz - Evoke 2015
2015-08-01 20:40:27 (144:35) On - Black Girl
2015-08-01 20:41:04 (145:12) Jam-S - Digital Eighties
2015-08-01 20:44:37 (148:45) Gaspode - Cubes
2015-08-01 20:47:21 (151:29) Mouldycat & Helene - Flaschenpost
2015-08-01 20:49:53 (154:01) T-101 - Elysium
2015-08-01 20:53:34 (157:42) XyCe - Dance un funk
2015-08-01 20:57:12 (161:20) response - Starships
Disclaimer | Privacy Statement | Terms of Use | Copyright © 2008-2020 SceneSat. All rights reserved. All times are CET.

Patrons

The following people have joined Tier II on Patreon: David “Bombe” Roden and 1 anonymous patrons.
The following people have joined Tier I on Patreon: Bowyer, iamdarkyoshi, K-Line and 6 anonymous patrons.